Time;durP1;ratioP1;P1;durP2;ratioP2;P2;SDS_P1;SDS_P2;PMS_P1;PMS_P2;Temp;Humidity;BMP_temperature;BMP_pressure;BME280_temperature;BME280_humidity;BME280_pressure;Samples;Min_cycle;Max_cycle;Signal;HPM_P1;HPM_P2
2023/05/06 00:01:14;;;;;;;6.53;3.83;;;;;;;;;;6244992;23;20022;-59
2023/05/06 00:03:40;;;;;;;8.55;4.78;;;;;;;;;;6245225;23;20020;-59
2023/05/06 00:06:08;;;;;;;6.15;4.32;;;;;;;;;;6245210;23;20439;-59
2023/05/06 00:08:34;;;;;;;6.78;4.50;;;;;;;;;;6245960;22;20012;-59
2023/05/06 00:11:00;;;;;;;7.05;4.57;;;;;;;;;;6245846;23;20499;-59
2023/05/06 00:13:26;;;;;;;10.07;5.25;;;;;;;;;;6246715;23;20034;-59
2023/05/06 00:15:52;;;;;;;7.47;4.85;;;;;;;;;;6245219;23;20043;-59
2023/05/06 00:18:21;;;;;;;6.90;4.65;;;;;;;;;;6244198;23;20020;-59
2023/05/06 00:20:47;;;;;;;5.55;4.05;;;;;;;;;;6246709;22;20016;-59
2023/05/06 00:23:13;;;;;;;6.50;4.18;;;;;;;;;;6246710;23;20020;-58
2023/05/06 00:25:39;;;;;;;8.57;4.47;;;;;;;;;;6246198;23;20055;-59
2023/05/06 00:28:05;;;;;;;8.30;4.03;;;;;;;;;;6246443;23;20008;-59
2023/05/06 00:30:31;;;;;;;8.25;5.00;;;;;;;;;;6248601;23;20016;-59
2023/05/06 00:32:57;;;;;;;7.95;4.15;;;;;;;;;;6248416;23;20016;-58
2023/05/06 00:35:23;;;;;;;6.95;4.15;;;;;;;;;;6248568;23;20016;-58
2023/05/06 00:38:05;;;;;;;9.18;4.32;;;;;;;;;;6248072;23;20014;-59
2023/05/06 00:40:31;;;;;;;7.20;4.13;;;;;;;;;;6246159;23;20020;-59
2023/05/06 00:42:57;;;;;;;8.88;5.05;;;;;;;;;;6248504;23;20015;-59
2023/05/06 00:45:24;;;;;;;9.80;5.90;;;;;;;;;;6221689;23;20008;-59
2023/05/06 00:47:51;;;;;;;8.82;5.20;;;;;;;;;;6247634;23;20016;-59
2023/05/06 00:50:17;;;;;;;9.32;5.68;;;;;;;;;;6246409;23;20095;-59
2023/05/06 00:52:43;;;;;;;9.73;5.78;;;;;;;;;;6247777;23;20016;-59
2023/05/06 00:55:09;;;;;;;8.20;5.43;;;;;;;;;;6248054;23;20012;-59
2023/05/06 00:57:35;;;;;;;8.02;5.03;;;;;;;;;;6249064;23;20039;-59
2023/05/06 01:00:01;;;;;;;8.70;5.43;;;;;;;;;;6248113;23;20012;-59
2023/05/06 01:02:27;;;;;;;7.70;5.28;;;;;;;;;;6247001;22;20016;-59
2023/05/06 01:04:54;;;;;;;9.38;6.13;;;;;;;;;;6248281;23;20023;-59
2023/05/06 01:07:27;;;;;;;11.10;6.22;;;;;;;;;;6247491;22;20016;-59
2023/05/06 01:09:58;;;;;;;9.30;5.60;;;;;;;;;;6248542;23;20054;-59
2023/05/06 01:12:37;;;;;;;10.75;6.30;;;;;;;;;;6247393;23;20016;-59
2023/05/06 01:15:06;;;;;;;10.38;6.60;;;;;;;;;;6248162;23;20012;-59
2023/05/06 01:17:34;;;;;;;11.40;6.05;;;;;;;;;;6247464;23;20038;-59
2023/05/06 01:20:01;;;;;;;8.82;5.90;;;;;;;;;;6245817;23;20094;-59
2023/05/06 01:22:28;;;;;;;14.27;7.47;;;;;;;;;;6248801;23;20067;-59
2023/05/06 01:24:54;;;;;;;11.45;6.90;;;;;;;;;;6247786;23;20030;-59
2023/05/06 01:27:20;;;;;;;10.70;6.28;;;;;;;;;;6245435;23;20015;-59
2023/05/06 01:29:46;;;;;;;10.20;6.50;;;;;;;;;;6246773;23;20364;-59
2023/05/06 01:32:20;;;;;;;15.65;7.20;;;;;;;;;;6247688;23;20047;-59
2023/05/06 01:34:53;;;;;;;14.07;8.80;;;;;;;;;;6247670;23;20020;-59
2023/05/06 01:37:27;;;;;;;13.43;7.78;;;;;;;;;;6246089;23;20016;-59
2023/05/06 01:39:55;;;;;;;12.65;8.00;;;;;;;;;;6246255;23;20058;-59
2023/05/06 01:42:21;;;;;;;11.60;7.57;;;;;;;;;;6247890;23;20023;-59
2023/05/06 01:44:48;;;;;;;14.40;8.00;;;;;;;;;;6246908;23;20360;-58
2023/05/06 01:47:15;;;;;;;13.98;8.48;;;;;;;;;;6247818;23;20012;-59
2023/05/06 01:49:41;;;;;;;13.95;8.40;;;;;;;;;;6219537;23;20044;-59
2023/05/06 01:52:07;;;;;;;15.10;8.20;;;;;;;;;;6246710;23;20012;-59
2023/05/06 01:54:33;;;;;;;13.93;8.65;;;;;;;;;;6247780;23;20012;-59
2023/05/06 01:56:59;;;;;;;11.40;7.18;;;;;;;;;;6245928;23;20103;-59
2023/05/06 01:59:25;;;;;;;11.55;7.78;;;;;;;;;;6247418;23;20379;-59
2023/05/06 02:01:51;;;;;;;12.13;7.32;;;;;;;;;;6247838;23;20008;-59
2023/05/06 02:04:17;;;;;;;11.77;7.65;;;;;;;;;;6247790;23;20051;-59
2023/05/06 02:06:43;;;;;;;13.90;8.38;;;;;;;;;;6247629;23;20020;-59
2023/05/06 02:09:09;;;;;;;17.35;10.10;;;;;;;;;;6245526;23;20016;-59
2023/05/06 02:11:35;;;;;;;14.27;8.20;;;;;;;;;;6247681;23;20023;-59
2023/05/06 02:14:01;;;;;;;14.18;8.65;;;;;;;;;;6247653;23;20012;-59
2023/05/06 02:16:28;;;;;;;12.25;7.40;;;;;;;;;;6246205;23;20044;-59
2023/05/06 02:18:54;;;;;;;10.43;6.80;;;;;;;;;;6246941;23;20019;-59
2023/05/06 02:21:20;;;;;;;11.13;7.75;;;;;;;;;;6246849;23;20026;-59
2023/05/06 02:23:46;;;;;;;12.20;7.63;;;;;;;;;;6246815;23;20433;-59
2023/05/06 02:26:12;;;;;;;13.85;8.18;;;;;;;;;;6247348;23;20100;-59
2023/05/06 02:28:38;;;;;;;10.48;7.28;;;;;;;;;;6247421;22;20016;-59
2023/05/06 02:31:04;;;;;;;10.45;8.25;;;;;;;;;;6244877;23;20023;-59
2023/05/06 02:33:30;;;;;;;12.93;7.30;;;;;;;;;;6246725;22;20064;-59
2023/05/06 02:35:56;;;;;;;11.07;7.97;;;;;;;;;;6247445;23;20012;-59
2023/05/06 02:38:22;;;;;;;11.32;7.90;;;;;;;;;;6247743;23;20068;-59
2023/05/06 02:40:48;;;;;;;13.43;8.88;;;;;;;;;;6245297;23;20018;-59
2023/05/06 02:43:15;;;;;;;11.32;7.93;;;;;;;;;;6245263;23;20361;-59
2023/05/06 02:45:41;;;;;;;15.43;8.95;;;;;;;;;;6245460;23;20087;-59
2023/05/06 02:48:07;;;;;;;14.60;9.25;;;;;;;;;;6247241;23;20356;-59
2023/05/06 02:50:33;;;;;;;11.75;8.30;;;;;;;;;;6245204;23;20143;-59
2023/05/06 02:52:59;;;;;;;14.98;8.93;;;;;;;;;;6246369;23;20015;-59
2023/05/06 02:55:25;;;;;;;12.75;8.85;;;;;;;;;;6246867;23;20370;-59
2023/05/06 02:57:51;;;;;;;12.82;8.50;;;;;;;;;;6247491;23;20048;-59
2023/05/06 03:00:17;;;;;;;13.98;9.10;;;;;;;;;;6245653;23;20091;-59
2023/05/06 03:02:43;;;;;;;17.17;9.45;;;;;;;;;;6246180;23;20019;-59
2023/05/06 03:05:09;;;;;;;17.67;12.25;;;;;;;;;;6247206;23;20057;-59
2023/05/06 03:07:36;;;;;;;14.43;9.40;;;;;;;;;;6247151;23;20020;-59
2023/05/06 03:10:02;;;;;;;16.30;10.15;;;;;;;;;;6245276;23;20022;-59
2023/05/06 03:12:28;;;;;;;19.67;10.32;;;;;;;;;;6244413;23;20020;-59
2023/05/06 03:14:55;;;;;;;17.58;9.93;;;;;;;;;;6246569;23;20418;-59
2023/05/06 03:17:21;;;;;;;16.90;10.65;;;;;;;;;;6247065;23;20364;-59
2023/05/06 03:19:49;;;;;;;15.80;10.88;;;;;;;;;;6245580;23;20035;-59
2023/05/06 03:22:15;;;;;;;15.05;9.50;;;;;;;;;;6245986;23;20496;-59
2023/05/06 03:24:41;;;;;;;17.17;10.75;;;;;;;;;;6247347;23;20318;-59
2023/05/06 03:27:07;;;;;;;17.92;10.70;;;;;;;;;;6246936;23;20023;-59
2023/05/06 03:29:33;;;;;;;17.98;9.80;;;;;;;;;;6246692;23;20012;-59
2023/05/06 03:32:02;;;;;;;14.90;9.10;;;;;;;;;;6244671;23;20016;-59
2023/05/06 03:34:29;;;;;;;16.75;9.90;;;;;;;;;;6246648;22;20051;-58
2023/05/06 03:36:56;;;;;;;14.75;9.23;;;;;;;;;;6246922;22;20015;-59
2023/05/06 03:39:22;;;;;;;14.02;8.73;;;;;;;;;;6245756;23;20062;-59
2023/05/06 03:41:48;;;;;;;12.38;8.32;;;;;;;;;;6245619;23;20100;-59
2023/05/06 03:44:14;;;;;;;14.50;8.23;;;;;;;;;;6246473;23;20018;-59
2023/05/06 03:46:40;;;;;;;12.32;8.48;;;;;;;;;;6246806;23;20380;-59
2023/05/06 03:49:06;;;;;;;13.48;8.50;;;;;;;;;;6246422;23;20095;-59
2023/05/06 03:51:32;;;;;;;11.85;8.10;;;;;;;;;;6245343;23;20450;-59
2023/05/06 03:53:59;;;;;;;11.90;7.72;;;;;;;;;;6246468;23;20023;-58
2023/05/06 03:56:25;;;;;;;12.02;7.43;;;;;;;;;;6246317;23;20095;-59
2023/05/06 03:58:52;;;;;;;13.45;8.30;;;;;;;;;;6247134;23;20353;-59
2023/05/06 04:01:19;;;;;;;14.48;8.90;;;;;;;;;;6245393;22;20023;-59
2023/05/06 04:03:45;;;;;;;15.00;9.57;;;;;;;;;;6247235;22;20019;-59
2023/05/06 04:06:11;;;;;;;11.55;8.48;;;;;;;;;;6246356;23;20009;-59
2023/05/06 04:08:37;;;;;;;13.05;8.38;;;;;;;;;;6245151;23;20429;-59
2023/05/06 04:11:07;;;;;;;14.35;8.82;;;;;;;;;;6247439;23;20016;-59
2023/05/06 04:13:34;;;;;;;13.90;8.70;;;;;;;;;;6244063;23;20020;-59
2023/05/06 04:16:00;;;;;;;10.23;7.25;;;;;;;;;;6246290;23;20433;-59
2023/05/06 04:18:26;;;;;;;12.15;8.30;;;;;;;;;;6244989;23;20039;-59
2023/05/06 04:20:52;;;;;;;10.68;7.00;;;;;;;;;;6246292;23;20071;-59
2023/05/06 04:23:18;;;;;;;13.65;8.63;;;;;;;;;;6245369;23;20349;-59
2023/05/06 04:25:48;;;;;;;12.60;8.90;;;;;;;;;;6245260;23;20020;-59
2023/05/06 04:28:15;;;;;;;15.05;9.68;;;;;;;;;;6244709;23;20019;-59
2023/05/06 04:30:41;;;;;;;15.38;9.80;;;;;;;;;;6246647;22;20062;-59
2023/05/06 04:33:07;;;;;;;19.63;11.57;;;;;;;;;;6244425;23;20440;-59
2023/05/06 04:35:33;;;;;;;22.48;12.35;;;;;;;;;;6244385;23;20491;-59
2023/05/06 04:38:01;;;;;;;19.58;11.70;;;;;;;;;;6246230;23;20012;-59
2023/05/06 04:40:27;;;;;;;23.40;12.93;;;;;;;;;;6246883;23;20309;-59
2023/05/06 04:42:53;;;;;;;25.95;13.95;;;;;;;;;;6245046;23;20016;-59
2023/05/06 04:45:19;;;;;;;30.63;14.88;;;;;;;;;;6245335;23;20018;-59
2023/05/06 04:47:45;;;;;;;23.60;15.00;;;;;;;;;;6243151;23;20336;-59
2023/05/06 04:50:11;;;;;;;27.38;14.43;;;;;;;;;;6246422;23;20048;-59
2023/05/06 04:52:37;;;;;;;23.13;13.40;;;;;;;;;;6244887;23;20534;-59
2023/05/06 04:55:03;;;;;;;30.15;17.17;;;;;;;;;;6246566;23;20012;-59
2023/05/06 04:57:31;;;;;;;31.50;16.40;;;;;;;;;;6245949;23;20016;-59
2023/05/06 04:59:57;;;;;;;30.70;16.02;;;;;;;;;;6246425;23;20023;-59
2023/05/06 05:02:23;;;;;;;29.25;15.82;;;;;;;;;;6244027;23;20043;-59
2023/05/06 05:04:49;;;;;;;26.60;14.55;;;;;;;;;;6243480;23;20087;-59
2023/05/06 05:07:15;;;;;;;26.98;15.40;;;;;;;;;;6219674;23;20016;-59
2023/05/06 05:09:41;;;;;;;25.45;15.70;;;;;;;;;;6245935;23;20066;-59
2023/05/06 05:12:07;;;;;;;23.88;14.05;;;;;;;;;;6243604;23;20065;-59
2023/05/06 05:14:33;;;;;;;27.58;14.75;;;;;;;;;;6246183;23;20078;-60
2023/05/06 05:16:59;;;;;;;26.08;14.60;;;;;;;;;;6247561;23;20012;-59
2023/05/06 05:19:25;;;;;;;21.23;12.13;;;;;;;;;;6246686;23;20371;-59
2023/05/06 05:21:51;;;;;;;21.02;13.02;;;;;;;;;;6247838;23;20074;-59
2023/05/06 05:24:17;;;;;;;22.13;11.73;;;;;;;;;;6248855;23;20019;-60
2023/05/06 05:26:43;;;;;;;17.98;11.00;;;;;;;;;;6246092;23;20023;-60
2023/05/06 05:29:10;;;;;;;20.35;10.63;;;;;;;;;;6247619;23;20008;-61
2023/05/06 05:31:36;;;;;;;15.43;9.90;;;;;;;;;;6248400;23;20016;-60
2023/05/06 05:34:02;;;;;;;17.02;9.98;;;;;;;;;;6248120;23;20443;-60
2023/05/06 05:36:28;;;;;;;14.65;9.80;;;;;;;;;;6247067;23;20012;-60
2023/05/06 05:38:54;;;;;;;17.90;10.93;;;;;;;;;;6248211;23;20439;-60
2023/05/06 05:41:20;;;;;;;15.43;9.65;;;;;;;;;;6248710;23;20377;-61
2023/05/06 05:43:46;;;;;;;16.30;10.18;;;;;;;;;;6247224;23;20461;-58
2023/05/06 05:46:12;;;;;;;14.88;9.75;;;;;;;;;;6245011;23;20019;-60
2023/05/06 05:48:39;;;;;;;15.00;10.60;;;;;;;;;;6244477;22;20042;-59
2023/05/06 05:51:05;;;;;;;15.45;9.30;;;;;;;;;;6246535;23;20016;-59
2023/05/06 05:53:31;;;;;;;20.25;11.38;;;;;;;;;;6220276;23;20482;-59
2023/05/06 05:55:57;;;;;;;17.10;9.93;;;;;;;;;;6232041;22;20016;-59
2023/05/06 05:58:23;;;;;;;17.10;10.63;;;;;;;;;;6243519;23;20020;-59
2023/05/06 06:00:49;;;;;;;17.20;10.60;;;;;;;;;;6244759;23;20020;-59
2023/05/06 06:03:16;;;;;;;20.08;10.82;;;;;;;;;;6245482;23;20020;-60
2023/05/06 06:05:42;;;;;;;17.00;10.20;;;;;;;;;;6246142;23;20087;-59
2023/05/06 06:08:08;;;;;;;19.15;10.75;;;;;;;;;;6243922;23;20016;-59
2023/05/06 06:10:34;;;;;;;16.70;10.50;;;;;;;;;;6245631;23;20016;-59
2023/05/06 06:13:01;;;;;;;17.42;11.52;;;;;;;;;;6245472;23;20410;-59
2023/05/06 06:15:28;;;;;;;21.33;10.93;;;;;;;;;;6243608;23;20008;-59
2023/05/06 06:17:54;;;;;;;18.58;12.05;;;;;;;;;;6245134;22;20008;-59
2023/05/06 06:20:20;;;;;;;20.38;12.27;;;;;;;;;;6244173;23;20332;-60
2023/05/06 06:22:46;;;;;;;22.58;11.98;;;;;;;;;;6243982;23;20015;-59
2023/05/06 06:25:12;;;;;;;21.20;12.85;;;;;;;;;;6245552;23;20012;-60
2023/05/06 06:27:38;;;;;;;21.80;13.02;;;;;;;;;;6245717;23;20016;-60
2023/05/06 06:30:04;;;;;;;21.70;13.10;;;;;;;;;;6245484;23;20445;-60
2023/05/06 06:32:30;;;;;;;19.70;11.88;;;;;;;;;;6243582;23;20023;-60
2023/05/06 06:34:56;;;;;;;19.05;12.27;;;;;;;;;;6243633;23;20023;-60
2023/05/06 06:37:22;;;;;;;21.20;13.43;;;;;;;;;;6244669;23;20008;-60
2023/05/06 06:39:48;;;;;;;19.02;11.32;;;;;;;;;;6245787;23;20012;-59
2023/05/06 06:42:15;;;;;;;17.30;11.75;;;;;;;;;;6243538;23;20095;-60
2023/05/06 06:44:41;;;;;;;18.05;11.43;;;;;;;;;;6244845;23;20087;-60
2023/05/06 06:47:07;;;;;;;19.23;12.27;;;;;;;;;;6244109;23;20317;-60
2023/05/06 06:49:33;;;;;;;18.52;12.60;;;;;;;;;;6245345;23;20172;-60
2023/05/06 06:51:59;;;;;;;18.13;12.23;;;;;;;;;;6244220;23;20019;-59
2023/05/06 06:54:25;;;;;;;17.95;11.80;;;;;;;;;;6244357;23;20012;-59
2023/05/06 06:56:57;;;;;;;17.83;11.77;;;;;;;;;;6244604;23;20018;-59
2023/05/06 06:59:23;;;;;;;17.05;10.73;;;;;;;;;;6244360;23;20016;-59
2023/05/06 07:01:50;;;;;;;15.77;10.82;;;;;;;;;;6220032;23;20122;-59
2023/05/06 07:04:16;;;;;;;17.92;10.88;;;;;;;;;;6244036;23;20016;-59
2023/05/06 07:06:42;;;;;;;15.40;10.07;;;;;;;;;;6244148;23;20417;-59
2023/05/06 07:09:08;;;;;;;14.43;9.85;;;;;;;;;;6244419;23;20048;-59
2023/05/06 07:11:34;;;;;;;14.50;9.95;;;;;;;;;;6245079;23;20016;-59
2023/05/06 07:14:00;;;;;;;16.50;10.07;;;;;;;;;;6245113;23;20059;-59
2023/05/06 07:16:26;;;;;;;13.48;9.68;;;;;;;;;;6244550;23;20103;-59
2023/05/06 07:18:52;;;;;;;13.43;9.63;;;;;;;;;;6245588;22;20417;-59
2023/05/06 07:21:19;;;;;;;15.18;9.30;;;;;;;;;;6246555;23;20424;-59
2023/05/06 07:23:45;;;;;;;13.98;9.05;;;;;;;;;;6246559;23;20012;-59
2023/05/06 07:26:11;;;;;;;15.07;8.68;;;;;;;;;;6243510;23;20016;-59
2023/05/06 07:28:37;;;;;;;12.50;8.65;;;;;;;;;;6246120;23;20048;-59
2023/05/06 07:31:03;;;;;;;11.55;8.55;;;17.10;99.90;;;;;;6246899;23;20302;-59
2023/05/06 07:33:29;;;;;;;12.68;8.55;;;;;;;;;;6245008;23;20043;-59
2023/05/06 07:35:55;;;;;;;12.32;7.30;;;;;;;;;;6243679;23;20328;-59
2023/05/06 07:38:23;;;;;;;10.93;7.47;;;17.70;99.90;;;;;;6244959;23;20012;-59
2023/05/06 07:40:50;;;;;;;10.48;7.45;;;17.70;99.90;;;;;;6246511;23;20023;-59
2023/05/06 07:43:16;;;;;;;9.70;7.00;;;17.90;99.90;;;;;;6244377;23;20448;-59
2023/05/06 07:45:42;;;;;;;8.13;6.25;;;;;;;;;;6245972;23;20019;-59
2023/05/06 07:48:08;;;;;;;8.60;6.07;;;;;;;;;;6245418;23;20066;-59
2023/05/06 07:50:34;;;;;;;9.98;7.18;;;;;;;;;;6247248;23;20314;-59
2023/05/06 07:53:00;;;;;;;9.13;5.95;;;;;;;;;;6246427;23;20016;-59
2023/05/06 07:55:26;;;;;;;8.60;6.43;;;;;;;;;;6246257;22;20016;-60
2023/05/06 07:57:52;;;;;;;7.95;5.60;;;;;;;;;;6243752;23;20016;-59
2023/05/06 08:00:18;;;;;;;7.35;6.00;;;;;;;;;;6243979;23;20012;-59
2023/05/06 08:02:46;;;;;;;8.65;5.38;;;;;;;;;;6245660;23;20053;-59
2023/05/06 08:05:12;;;;;;;7.00;5.10;;;18.10;99.90;;;;;;6245727;22;20015;-59
2023/05/06 08:07:41;;;;;;;8.32;5.18;;;;;;;;;;6244404;23;20023;-59
2023/05/06 08:10:08;;;;;;;8.37;5.60;;;18.20;99.90;;;;;;6245542;23;20008;-59
2023/05/06 08:12:35;;;;;;;7.00;5.00;;;18.20;99.90;;;;;;6246684;23;20041;-59
2023/05/06 08:15:01;;;;;;;8.10;5.30;;;18.40;99.90;;;;;;6243983;23;20090;-60
2023/05/06 08:17:27;;;;;;;7.35;5.47;;;;;;;;;;6245610;23;20413;-59
2023/05/06 08:19:54;;;;;;;7.20;5.18;;;18.30;99.90;;;;;;6244682;23;20019;-59
2023/05/06 08:22:19;;;;;;;8.55;5.75;;;18.40;99.90;;;;;;6244134;22;20012;-59
2023/05/06 08:24:45;;;;;;;8.75;6.45;;;;;;;;;;6244693;23;20383;-60
2023/05/06 08:27:11;;;;;;;7.28;5.03;;;;;;;;;;6244877;23;20023;-59
2023/05/06 08:29:37;;;;;;;8.52;5.43;;;18.70;99.90;;;;;;6242360;23;20027;-59
2023/05/06 08:32:03;;;;;;;7.68;5.63;;;18.80;99.90;;;;;;6245701;23;20020;-59
2023/05/06 08:34:30;;;;;;;11.15;7.15;;;;;;;;;;6244263;23;20019;-60
2023/05/06 08:36:55;;;;;;;8.18;6.22;;;19.00;99.90;;;;;;6244110;23;20023;-59
2023/05/06 08:39:21;;;;;;;8.02;6.20;;;18.80;99.90;;;;;;6246470;23;20348;-59
2023/05/06 08:41:51;;;;;;;9.25;6.07;;;18.80;99.90;;;;;;6244953;23;20090;-59
2023/05/06 08:44:18;;;;;;;9.13;7.27;;;18.90;99.90;;;;;;6243899;23;20084;-60
2023/05/06 08:46:47;;;;;;;11.30;7.32;;;19.10;99.90;;;;;;6245706;23;20015;-59
2023/05/06 08:49:13;;;;;;;8.15;6.25;;;19.20;99.90;;;;;;6245373;23;20109;-59
2023/05/06 08:51:42;;;;;;;9.40;7.05;;;19.30;99.90;;;;;;6245264;23;20020;-59
2023/05/06 08:54:09;;;;;;;12.97;7.50;;;19.60;99.90;;;;;;6247621;23;20352;-59
2023/05/06 08:56:37;;;;;;;11.65;7.03;;;19.80;99.90;;;;;;6246329;23;20576;-60
2023/05/06 08:59:05;;;;;;;11.25;7.18;;;20.10;99.90;;;;;;6247685;23;20012;-60
2023/05/06 09:01:31;;;;;;;10.77;6.38;;;20.00;99.90;;;;;;6247959;23;20019;-59
2023/05/06 09:03:58;;;;;;;8.80;6.55;;;20.10;99.90;;;;;;6247725;23;20008;-60
2023/05/06 09:06:24;;;;;;;10.60;7.22;;;;;;;;;;6241778;22;20013;-60
2023/05/06 09:08:50;;;;;;;10.57;7.47;;;;;;;;;;6220137;23;20013;-60
2023/05/06 09:11:28;;;;;;;10.07;6.97;;;20.60;99.90;;;;;;6219087;23;20525;-61
2023/05/06 09:14:14;;;;;;;12.82;8.23;;;20.40;99.90;;;;;;6246861;23;20016;-60
2023/05/06 09:16:45;;;;;;;9.70;7.70;;;20.60;99.90;;;;;;6243974;23;20119;-60
2023/05/06 09:19:11;;;;;;;11.85;9.30;;;20.30;99.90;;;;;;6246653;23;20011;-60
2023/05/06 09:21:39;;;;;;;12.88;8.70;;;20.20;99.90;;;;;;6246715;23;20074;-60
2023/05/06 09:24:07;;;;;;;15.93;9.27;;;20.40;99.90;;;;;;6246509;23;20020;-60
2023/05/06 09:26:35;;;;;;;16.80;9.75;;;20.60;99.90;;;;;;6245468;23;20027;-60
2023/05/06 09:29:02;;;;;;;14.90;9.30;;;20.60;99.90;;;;;;6194117;23;20012;-60
2023/05/06 09:31:28;;;;;;;13.75;9.60;;;20.70;99.90;;;;;;6218544;23;20020;-60
2023/05/06 09:33:56;;;;;;;14.73;10.32;;;21.00;99.90;;;;;;6246565;23;20051;-60
2023/05/06 09:36:23;;;;;;;14.90;10.57;;;20.80;99.90;;;;;;6244587;23;20066;-61
2023/05/06 09:38:49;;;;;;;14.48;9.95;;;20.50;99.90;;;;;;6220021;23;20056;-60
2023/05/06 09:41:19;;;;;;;16.55;10.88;;;20.70;99.90;;;;;;6221239;23;20023;-61
2023/05/06 09:43:47;;;;;;;15.18;10.88;;;21.10;99.90;;;;;;6247584;23;20035;-60
2023/05/06 09:46:15;;;;;;;19.73;11.20;;;21.10;99.90;;;;;;6246812;23;20016;-60
2023/05/06 09:48:41;;;;;;;14.35;10.55;;;21.40;99.90;;;;;;6219987;23;20083;-61
2023/05/06 09:51:07;;;;;;;14.55;10.73;;;21.50;99.90;;;;;;6246365;23;20094;-61
2023/05/06 09:53:36;;;;;;;18.90;11.18;;;23.00;99.90;;;;;;6246657;23;20070;-60
2023/05/06 09:56:06;;;;;;;13.98;10.23;;;21.70;99.90;;;;;;6220043;23;20012;-60
2023/05/06 09:58:33;;;;;;;17.50;11.77;;;22.00;99.90;;;;;;6246498;23;20050;-60
2023/05/06 10:01:00;;;;;;;15.98;12.18;;;;;;;;;;6219890;23;20050;-60
2023/05/06 10:03:26;;;;;;;17.75;12.18;;;22.10;99.90;;;;;;6246587;23;20035;-60
2023/05/06 10:05:53;;;;;;;19.55;13.48;;;22.30;99.90;;;;;;6247201;23;20028;-60
2023/05/06 10:08:20;;;;;;;18.20;11.50;;;22.00;99.90;;;;;;6245593;23;20022;-60
2023/05/06 10:10:48;;;;;;;17.58;12.35;;;22.00;99.90;;;;;;6219809;23;20040;-60
2023/05/06 10:13:14;;;;;;;18.27;11.63;;;22.10;99.90;;;;;;6219642;23;20016;-60
2023/05/06 10:15:42;;;;;;;13.90;10.60;;;22.00;99.90;;;;;;6220250;23;20059;-60
2023/05/06 10:18:09;;;;;;;19.25;11.73;;;22.10;99.90;;;;;;6245513;23;20016;-61
2023/05/06 10:20:36;;;;;;;15.05;10.82;;;22.10;99.90;;;;;;6246894;23;20441;-60
2023/05/06 10:23:28;;;;;;;15.18;11.02;;;22.20;99.90;;;;;;6247175;23;20012;-60
2023/05/06 10:26:06;;;;;;;14.23;10.32;;;22.40;99.90;;;;;;6247530;23;20012;-60
2023/05/06 10:28:38;;;;;;;14.55;10.80;;;22.70;99.90;;;;;;6246493;23;20019;-60
2023/05/06 10:31:06;;;;;;;15.63;10.40;;;22.60;99.90;;;;;;6221593;23;20448;-60
2023/05/06 10:33:32;;;;;;;15.23;10.40;;;22.50;99.90;;;;;;6221010;23;20317;-60
2023/05/06 10:36:19;;;;;;;16.45;10.90;;;22.40;99.90;;;;;;6220669;23;20015;-60
2023/05/06 10:38:49;;;;;;;14.20;9.60;;;22.10;99.90;;;;;;6219716;23;20020;-60
2023/05/06 10:41:16;;;;;;;15.68;9.48;;;22.10;99.90;;;;;;6246303;23;20016;-64
2023/05/06 10:43:44;;;;;;;13.77;8.65;;;22.00;99.90;;;;;;6217130;23;20060;-61
2023/05/06 10:46:16;;;;;;;14.13;8.57;;;22.20;99.90;;;;;;6245674;23;20038;-64
2023/05/06 10:49:10;;;;;;;15.88;8.25;;;22.40;99.90;;;;;;6246460;23;20054;-63
2023/05/06 10:51:42;;;;;;;11.50;7.40;;;22.30;99.90;;;;;;6219381;23;20436;-64
2023/05/06 10:54:17;;;;;;;13.65;8.30;;;22.60;99.90;;;;;;6246567;23;20019;-67
2023/05/06 10:57:09;;;;;;;12.00;8.20;;;22.30;99.90;;;;;;6218921;23;20016;-70
2023/05/06 10:59:35;;;;;;;13.23;7.53;;;22.50;99.90;;;;;;6219970;23;20012;-64
2023/05/06 11:02:04;;;;;;;11.13;7.28;;;22.50;99.90;;;;;;6245698;23;20113;-67
2023/05/06 11:04:30;;;;;;;13.85;7.15;;;;;;;;;;6220113;23;20075;-66
2023/05/06 11:07:13;;;;;;;13.90;8.73;;;22.80;99.90;;;;;;6221013;23;20062;-62
2023/05/06 11:09:59;;;;;;;12.82;8.15;;;22.70;99.90;;;;;;6219095;23;20004;-62
2023/05/06 11:12:43;;;;;;;12.75;8.20;;;22.30;99.90;;;;;;6219224;23;20452;-63
2023/05/06 11:15:39;;;;;;;14.98;8.50;;;;;;;;;;6246567;23;20440;-62
2023/05/06 11:18:23;;;;;;;13.23;7.35;;;21.70;99.90;;;;;;6215075;23;20440;-61
2023/05/06 11:20:50;;;;;;;11.52;6.20;;;;;;;;;;6245885;23;20486;-60
2023/05/06 11:23:17;;;;;;;10.38;5.43;;;21.70;99.90;;;;;;6194284;23;20016;-62
2023/05/06 11:25:46;;;;;;;8.98;4.95;;;;;;;;;;6218069;23;20015;-62
2023/05/06 11:28:13;;;;;;;9.98;3.75;;;22.50;99.90;;;;;;6219653;23;20008;-63
2023/05/06 11:30:41;;;;;;;10.98;5.40;;;22.90;99.90;;;;;;6195121;23;20020;-61
2023/05/06 11:33:14;;;;;;;13.77;6.95;;;22.60;99.90;;;;;;6246954;23;20027;-60
2023/05/06 11:35:40;;;;;;;9.90;5.60;;;22.80;99.90;;;;;;6247624;23;20018;-65
2023/05/06 11:38:05;;;;;;;11.15;5.47;;;23.10;99.90;;;;;;6245215;23;20397;-72
2023/05/06 11:40:31;;;;;;;9.27;4.75;;;;;;;;;;6246794;23;20016;-61
2023/05/06 11:43:13;;;;;;;11.30;6.35;;;;;;;;;;6220061;23;20055;-64
2023/05/06 11:45:49;;;;;;;13.25;6.90;;;22.80;99.90;;;;;;6246808;23;20487;-67
2023/05/06 11:48:16;;;;;;;11.52;7.10;;;22.60;99.90;;;;;;6246766;23;20012;-60
2023/05/06 11:50:46;;;;;;;10.73;6.78;;;;;;;;;;6246804;23;20027;-62
2023/05/06 11:53:15;;;;;;;;;;;22.80;99.90;;;;;;6193159;23;20070;-65
2023/05/06 11:55:41;;;;;;;11.68;6.38;;;;;;;;;;6246393;23;19911;-63
2023/05/06 11:58:13;;;;;;;9.82;5.68;;;23.10;99.90;;;;;;6195325;23;20048;-63
2023/05/06 12:00:50;;;;;;;9.50;5.15;;;23.20;99.90;;;;;;6196014;23;20008;-65
2023/05/06 12:03:16;;;;;;;9.48;5.20;;;;;;;;;;6220080;23;20019;-68
2023/05/06 12:05:43;;;;;;;9.82;5.15;;;;;;;;;;6219717;23;20008;-59
2023/05/06 12:08:10;;;;;;;9.25;5.25;;;24.00;99.90;;;;;;6194685;23;20332;-62
2023/05/06 12:10:38;;;;;;;11.73;5.38;;;24.00;99.90;;;;;;6220056;23;20015;-62
2023/05/06 12:13:05;;;;;;;8.77;5.18;;;24.00;99.90;;;;;;6246105;23;20046;-60
2023/05/06 12:15:33;;;;;;;8.40;4.70;;;23.80;99.90;;;;;;6246637;23;20016;-63
2023/05/06 12:18:00;;;;;;;10.82;4.68;;;;;;;;;;6247284;23;20095;-63
2023/05/06 12:20:26;;;;;;;10.68;5.03;;;;;;;;;;6246549;23;20016;-65
2023/05/06 12:23:24;;;;;;;11.07;6.40;;;23.90;99.90;;;;;;6219889;23;20019;-63
2023/05/06 12:26:04;;;;;;;10.82;5.47;;;23.60;99.90;;;;;;6166504;23;20034;-65
2023/05/06 12:28:32;;;;;;;9.75;5.80;;;23.30;99.90;;;;;;6195759;23;20440;-65
2023/05/06 12:30:58;;;;;;;13.07;6.25;;;22.80;99.90;;;;;;6220799;23;20325;-66
2023/05/06 12:33:24;;;;;;;10.02;6.35;;;;;;;;;;6221768;23;20381;-70
2023/05/06 12:35:53;;;;;;;12.50;6.60;;;;;;;;;;6247927;23;20441;-61
2023/05/06 12:38:19;;;;;;;11.63;6.03;;;;;;;;;;6196543;23;20020;-61
2023/05/06 12:40:55;;;;;;;12.35;6.07;;;21.70;99.90;;;;;;6221321;23;20024;-61
2023/05/06 12:43:31;;;;;;;14.25;7.07;;;21.40;99.90;;;;;;6221789;23;20047;-70
2023/05/06 12:46:04;;;;;;;12.23;7.22;;;;;;;;;;6222503;23;20027;-65
2023/05/06 12:48:30;;;;;;;14.02;7.68;;;;;;;;;;6221541;23;20008;-64
2023/05/06 12:50:56;;;;;;;12.00;7.45;;;;;;;;;;6249026;23;20039;-64
2023/05/06 12:53:32;;;;;;;13.15;7.20;;;;;;;;;;6221795;23;20322;-64
2023/05/06 12:55:58;;;;;;;15.65;8.48;;;;;;;;;;6221180;23;20042;-63
2023/05/06 12:58:24;;;;;;;15.45;8.32;;;;;;;;;;6221856;23;20437;-62
2023/05/06 13:03:20;;;;;;;20.10;9.20;;;;;;;;;;6237289;23;20019;-62
2023/05/06 13:05:48;;;;;;;16.50;9.38;;;;;;;;;;6227148;23;20020;-62
2023/05/06 13:08:14;;;;;;;12.52;6.88;;;;;;;;;;6215888;23;20027;-62
2023/05/06 13:10:40;;;;;;;5.82;3.20;;;;;;;;;;6215917;23;20028;-62
2023/05/06 13:13:06;;;;;;;9.00;5.50;;;;;;;;;;6215507;23;20016;-62
2023/05/06 13:15:33;;;;;;;9.98;6.32;;;;;;;;;;6213488;23;20038;-63
2023/05/06 13:18:00;;;;;;;12.10;7.80;;;;;;;;;;6216047;23;20108;-63
2023/05/06 13:20:26;;;;;;;13.80;7.07;;;;;;;;;;6218020;23;20070;-63
2023/05/06 13:23:02;;;;;;;10.75;6.90;;;18.20;99.90;;;;;;6230717;22;20095;-63
2023/05/06 13:25:28;;;;;;;9.98;5.03;;;;;;;;;;6190358;22;20016;-63
2023/05/06 13:27:54;;;;;;;4.65;2.95;;;;;;;;;;6245840;23;20046;-63
2023/05/06 13:30:20;;;;;;;5.88;2.40;;;;;;;;;;6240742;23;20013;-63
2023/05/06 13:32:46;;;;;;;5.35;2.30;;;;;;;;;;6243934;23;20016;-63
2023/05/06 13:35:13;;;;;;;7.05;2.30;;;;;;;;;;6244408;23;20062;-62
2023/05/06 13:37:39;;;;;;;3.40;1.65;;;;;;;;;;6243723;23;20016;-62
2023/05/06 13:40:08;;;;;;;7.35;2.47;;;;;;;;;;6245029;23;20023;-62
2023/05/06 13:42:34;;;;;;;4.83;1.20;;;;;;;;;;6217531;23;20056;-63
2023/05/06 13:45:00;;;;;;;2.97;1.08;;;;;;;;;;6244724;23;20015;-62
2023/05/06 13:47:26;;;;;;;4.70;1.50;;;;;;;;;;6243159;23;20146;-62
2023/05/06 13:49:52;;;;;;;4.05;1.30;;;;;;;;;;6245676;23;20007;-62
2023/05/06 13:52:18;;;;;;;5.95;1.85;;;;;;;;;;6243471;23;20023;-63
2023/05/06 13:54:45;;;;;;;4.95;2.45;;;;;;;;;;6244654;23;20012;-62
2023/05/06 13:57:11;;;;;;;4.63;2.35;;;;;;;;;;6218606;23;20027;-62
2023/05/06 13:59:37;;;;;;;5.00;2.40;;;;;;;;;;6243903;23;20306;-62
2023/05/06 14:02:03;;;;;;;7.15;2.30;;;;;;;;;;6245228;23;20020;-62